createdAt,value
2018-10-12T00:02:16.892Z,5.30
2018-10-12T00:04:44.963Z,5.70
2018-10-12T00:07:13.040Z,5.87
2018-10-12T00:09:41.103Z,5.43
2018-10-12T00:12:09.466Z,5.40
2018-10-12T00:14:37.546Z,5.53
2018-10-12T00:17:05.632Z,5.93
2018-10-12T00:19:33.712Z,5.77
2018-10-12T00:22:01.791Z,5.87
2018-10-12T00:24:29.867Z,5.57
2018-10-12T00:26:58.220Z,5.60
2018-10-12T00:29:26.391Z,5.70
2018-10-12T00:31:54.472Z,5.90
2018-10-12T00:34:22.556Z,5.80
2018-10-12T00:36:50.626Z,5.83
2018-10-12T00:39:18.739Z,5.13
2018-10-12T00:41:47.135Z,4.80
2018-10-12T00:44:15.211Z,5.27
2018-10-12T00:46:43.308Z,5.33
2018-10-12T00:49:11.655Z,5.30
2018-10-12T00:51:39.736Z,5.63
2018-10-12T00:54:07.820Z,6.07
2018-10-12T00:56:36.211Z,5.77
2018-10-12T00:59:04.295Z,5.47
2018-10-12T01:01:32.367Z,4.60
2018-10-12T01:04:00.452Z,6.17
2018-10-12T01:06:28.766Z,5.37
2018-10-12T01:08:56.840Z,5.40
2018-10-12T01:11:24.919Z,5.10
2018-10-12T01:13:53.259Z,5.20
2018-10-12T01:16:21.330Z,5.73
2018-10-12T01:18:49.405Z,5.10
2018-10-12T01:21:17.968Z,5.60
2018-10-12T01:23:46.047Z,5.23
2018-10-12T01:26:14.336Z,5.43
2018-10-12T01:28:42.655Z,5.63
2018-10-12T01:31:10.728Z,6.10
2018-10-12T01:33:38.822Z,5.03
2018-10-12T01:36:06.905Z,5.57
2018-10-12T01:38:34.989Z,6.17
2018-10-12T01:41:03.055Z,5.33
2018-10-12T01:43:31.355Z,5.27
2018-10-12T01:45:59.430Z,5.47
2018-10-12T01:48:27.507Z,4.77
2018-10-12T01:50:55.875Z,4.80
2018-10-12T01:53:23.951Z,5.10
2018-10-12T01:55:56.551Z,6.00
2018-10-12T01:58:24.627Z,4.83
2018-10-12T02:00:52.695Z,4.90
2018-10-12T02:03:20.780Z,5.23
2018-10-12T02:05:48.851Z,5.13
2018-10-12T02:08:16.932Z,5.07
2018-10-12T02:10:44.999Z,5.20
2018-10-12T02:13:13.075Z,5.17
2018-10-12T02:15:41.395Z,5.23
2018-10-12T02:18:09.464Z,5.00
2018-10-12T02:20:37.544Z,5.07
2018-10-12T02:23:06.140Z,5.37
2018-10-12T02:25:34.223Z,5.00
2018-10-12T02:28:02.299Z,5.00
2018-10-12T02:30:30.380Z,5.03
2018-10-12T02:32:58.693Z,4.87
2018-10-12T02:35:26.934Z,4.50
2018-10-12T02:37:55.019Z,5.53
2018-10-12T02:40:23.363Z,4.30
2018-10-12T02:42:51.732Z,4.97
2018-10-12T02:45:20.107Z,4.43
2018-10-12T02:47:48.291Z,4.37
2018-10-12T02:50:16.384Z,5.30
2018-10-12T02:52:44.463Z,4.80
2018-10-12T02:55:12.592Z,4.37
2018-10-12T02:57:40.675Z,4.80
2018-10-12T03:00:09.268Z,4.40
2018-10-12T03:02:37.360Z,4.67
2018-10-12T03:05:06.511Z,4.77
2018-10-12T03:07:34.599Z,4.90
2018-10-12T03:10:02.739Z,4.63
2018-10-12T03:12:30.844Z,4.90
2018-10-12T03:14:59.010Z,5.03
2018-10-12T03:17:27.096Z,4.93
2018-10-12T03:19:55.193Z,4.67
2018-10-12T03:22:23.275Z,4.40
2018-10-12T03:24:51.368Z,4.43
2018-10-12T03:27:19.459Z,4.70
2018-10-12T03:29:47.566Z,4.53
2018-10-12T03:32:15.705Z,4.57
2018-10-12T03:34:43.798Z,4.83
2018-10-12T03:37:11.900Z,4.47
2018-10-12T03:39:39.978Z,4.37
2018-10-12T03:42:08.088Z,5.40
2018-10-12T03:44:36.176Z,4.40
2018-10-12T03:47:04.259Z,4.37
2018-10-12T03:49:32.346Z,4.67
2018-10-12T03:52:01.593Z,4.43
2018-10-12T03:54:29.654Z,5.07
2018-10-12T03:56:57.727Z,4.90
2018-10-12T03:59:26.128Z,4.53
2018-10-12T04:01:54.215Z,4.40
2018-10-12T04:04:22.298Z,4.60
2018-10-12T04:06:50.376Z,5.47
2018-10-12T04:09:18.500Z,4.67
2018-10-12T04:11:46.583Z,4.60
2018-10-12T04:14:14.675Z,4.43
2018-10-12T04:16:42.763Z,4.37
2018-10-12T04:19:10.846Z,4.53
2018-10-12T04:21:38.931Z,4.70
2018-10-12T04:24:07.020Z,4.87
2018-10-12T04:26:35.123Z,4.57
2018-10-12T04:29:03.200Z,5.00
2018-10-12T04:31:31.286Z,4.07
2018-10-12T04:33:59.387Z,4.00
2018-10-12T04:36:27.475Z,4.77
2018-10-12T04:39:07.110Z,4.60
2018-10-12T04:41:35.200Z,4.50
2018-10-12T04:44:03.731Z,4.63
2018-10-12T04:46:34.823Z,4.57
2018-10-12T04:49:04.025Z,4.90
2018-10-12T04:51:36.335Z,4.80
2018-10-12T04:54:04.410Z,4.63
2018-10-12T04:56:32.519Z,4.30
2018-10-12T04:59:00.605Z,4.37
2018-10-12T05:01:28.700Z,4.57
2018-10-12T05:03:56.782Z,4.67
2018-10-12T05:06:24.959Z,4.53
2018-10-12T05:08:53.071Z,5.10
2018-10-12T05:11:21.185Z,4.30
2018-10-12T05:13:49.523Z,5.70
2018-10-12T05:16:17.604Z,6.00
2018-10-12T05:18:45.692Z,5.93
2018-10-12T05:21:13.779Z,6.77
2018-10-12T05:23:41.860Z,5.80
2018-10-12T05:26:09.947Z,6.37
2018-10-12T05:28:38.655Z,6.17
2018-10-12T05:31:07.199Z,6.87
2018-10-12T05:33:35.286Z,7.47
2018-10-12T05:36:03.801Z,7.87
2018-10-12T05:38:32.643Z,7.27
2018-10-12T05:41:00.923Z,7.13
2018-10-12T05:43:29.391Z,7.17
2018-10-12T05:45:57.437Z,7.67
2018-10-12T05:48:37.376Z,7.80
2018-10-12T05:51:06.095Z,7.77
2018-10-12T05:53:35.217Z,9.17
2018-10-12T05:56:03.510Z,8.80
2018-10-12T05:58:31.751Z,8.47
2018-10-12T06:00:59.834Z,8.00
2018-10-12T06:03:28.243Z,8.40
2018-10-12T06:05:56.347Z,8.03
2018-10-12T06:08:24.447Z,8.20
2018-10-12T06:10:52.523Z,8.90
2018-10-12T06:13:20.645Z,8.07
2018-10-12T06:15:48.821Z,8.30
2018-10-12T06:18:16.915Z,9.13
2018-10-12T06:20:45.020Z,9.20
2018-10-12T06:23:13.111Z,8.63
2018-10-12T06:25:41.219Z,8.80
2018-10-12T06:28:09.308Z,9.40
2018-10-12T06:30:37.408Z,8.77
2018-10-12T06:33:05.500Z,9.40
2018-10-12T06:35:33.847Z,9.13
2018-10-12T06:38:01.956Z,8.90
2018-10-12T06:40:30.887Z,9.93
2018-10-12T06:42:59.205Z,9.23
2018-10-12T06:45:27.365Z,8.90
2018-10-12T06:47:55.475Z,9.10
2018-10-12T06:50:23.579Z,8.83
2018-10-12T06:52:51.673Z,10.13
2018-10-12T06:55:19.832Z,8.77
2018-10-12T06:57:47.920Z,8.93
2018-10-12T07:00:16.132Z,9.83
2018-10-12T07:02:44.219Z,8.80
2018-10-12T07:05:12.315Z,9.60
2018-10-12T07:07:41.591Z,8.97
2018-10-12T07:10:10.139Z,9.47
2018-10-12T07:12:38.244Z,8.97
2018-10-12T07:15:07.261Z,9.53
2018-10-12T07:17:35.355Z,9.83
2018-10-12T07:20:03.479Z,8.90
2018-10-12T07:22:31.572Z,10.07
2018-10-12T07:24:59.731Z,9.20
2018-10-12T07:27:27.836Z,8.33
2018-10-12T07:29:56.220Z,8.60
2018-10-12T07:32:24.307Z,8.80
2018-10-12T07:34:52.413Z,9.03
2018-10-12T07:37:20.894Z,8.60
2018-10-12T07:39:48.843Z,8.43
2018-10-12T07:42:17.006Z,8.30
2018-10-12T07:44:45.109Z,9.23
2018-10-12T07:47:13.216Z,10.47
2018-10-12T07:49:41.307Z,9.03
2018-10-12T07:52:09.400Z,9.27
2018-10-12T07:54:37.489Z,9.13
2018-10-12T07:57:10.555Z,9.00
2018-10-12T07:59:39.627Z,9.57
2018-10-12T08:02:08.367Z,8.77
2018-10-12T08:04:36.548Z,9.10
2018-10-12T08:07:04.895Z,8.90
2018-10-12T08:09:33.247Z,8.60
2018-10-12T08:12:01.327Z,8.97
2018-10-12T08:14:29.427Z,9.30
2018-10-12T08:16:57.710Z,8.63
2018-10-12T08:19:25.803Z,9.60
2018-10-12T08:21:53.891Z,9.33
2018-10-12T08:24:21.988Z,9.17
2018-10-12T08:26:50.477Z,9.50
2018-10-12T08:29:18.535Z,10.33
2018-10-12T08:31:46.643Z,9.57
2018-10-12T08:34:14.928Z,10.00
2018-10-12T08:36:43.644Z,9.13
2018-10-12T08:39:12.913Z,9.67
2018-10-12T08:41:41.027Z,9.30
2018-10-12T08:44:09.144Z,10.00
2018-10-12T08:46:37.248Z,9.00
2018-10-12T08:49:05.381Z,8.90
2018-10-12T08:51:34.005Z,9.53
2018-10-12T08:54:02.198Z,9.83
2018-10-12T08:56:30.281Z,8.87
2018-10-12T08:58:58.872Z,8.97
2018-10-12T09:01:27.603Z,8.83
2018-10-12T09:03:55.712Z,9.53
2018-10-12T09:06:24.335Z,8.90
2018-10-12T09:08:52.423Z,8.87
2018-10-12T09:11:20.832Z,7.90
2018-10-12T09:13:49.281Z,8.93
2018-10-12T09:16:17.817Z,7.60
2018-10-12T09:18:45.897Z,8.70
2018-10-12T09:21:13.996Z,7.60
2018-10-12T09:23:42.107Z,8.83
2018-10-12T09:26:10.199Z,8.10
2018-10-12T09:28:38.511Z,9.20
2018-10-12T09:31:07.091Z,8.40
2018-10-12T09:33:35.202Z,9.30
2018-10-12T09:36:03.440Z,8.53
2018-10-12T09:38:31.571Z,9.60
2018-10-12T09:40:59.655Z,8.13
2018-10-12T09:43:27.776Z,8.53
2018-10-12T09:45:56.139Z,7.67
2018-10-12T09:48:24.706Z,8.20
2018-10-12T09:50:52.840Z,7.70
2018-10-12T09:53:21.123Z,8.03
2018-10-12T09:55:49.569Z,7.47
2018-10-12T09:58:17.636Z,8.13
2018-10-12T10:00:51.268Z,7.67
2018-10-12T10:03:24.679Z,7.90
2018-10-12T10:05:53.108Z,7.43
2018-10-12T10:08:21.351Z,7.63
2018-10-12T10:10:49.307Z,7.20
2018-10-12T10:13:17.396Z,7.17
2018-10-12T10:15:45.499Z,7.77
2018-10-12T10:18:13.579Z,7.07
2018-10-12T10:20:41.688Z,7.43
2018-10-12T10:23:10.120Z,7.53
2018-10-12T10:25:38.207Z,6.70
2018-10-12T10:28:06.499Z,7.63
2018-10-12T10:30:34.851Z,6.87
2018-10-12T10:33:02.936Z,7.10
2018-10-12T10:35:31.059Z,6.77
2018-10-12T10:37:59.142Z,6.60
2018-10-12T10:40:27.234Z,7.20
2018-10-12T10:42:55.332Z,6.77
2018-10-12T10:45:23.417Z,7.03
2018-10-12T10:47:51.819Z,6.97
2018-10-12T10:50:19.930Z,6.97
2018-10-12T10:52:48.279Z,6.87
2018-10-12T10:55:16.535Z,7.63
2018-10-12T10:57:44.628Z,6.77
2018-10-12T11:00:12.715Z,6.57
2018-10-12T11:02:40.812Z,7.50
2018-10-12T11:05:08.905Z,7.10
2018-10-12T11:07:37.016Z,6.73
2018-10-12T11:10:05.141Z,6.90
2018-10-12T11:12:33.266Z,7.20
2018-10-12T11:15:01.323Z,6.10
2018-10-12T11:17:29.716Z,6.97
2018-10-12T11:19:57.794Z,7.17
2018-10-12T11:22:25.892Z,6.10
2018-10-12T11:24:53.967Z,6.80
2018-10-12T11:27:22.063Z,6.17
2018-10-12T11:29:50.140Z,6.40
2018-10-12T11:32:18.244Z,6.27
2018-10-12T11:34:46.357Z,5.87
2018-10-12T11:37:14.692Z,5.70
2018-10-12T11:39:42.860Z,4.80
2018-10-12T11:42:10.944Z,5.53
2018-10-12T11:44:39.076Z,5.00
2018-10-12T11:47:07.527Z,5.10
2018-10-12T11:49:35.633Z,5.30
2018-10-12T11:52:03.774Z,5.00
2018-10-12T11:54:31.859Z,4.83
2018-10-12T11:56:59.948Z,5.03
2018-10-12T11:59:28.187Z,5.60
2018-10-12T12:01:56.279Z,4.97
2018-10-12T12:04:24.596Z,4.90
2018-10-12T12:06:52.680Z,4.77
2018-10-12T12:09:20.777Z,5.00
2018-10-12T12:11:48.856Z,4.97
2018-10-12T12:14:17.190Z,5.33
2018-10-12T12:16:45.271Z,4.90
2018-10-12T12:19:13.367Z,4.93
2018-10-12T12:21:41.448Z,4.47
2018-10-12T12:24:09.544Z,5.00
2018-10-12T12:26:37.741Z,5.30
2018-10-12T12:29:05.822Z,5.03
2018-10-12T12:31:33.914Z,5.10
2018-10-12T12:34:02.023Z,4.87
2018-10-12T12:36:30.139Z,5.33
2018-10-12T12:38:58.224Z,4.67
2018-10-12T12:41:26.371Z,5.73
2018-10-12T12:43:54.456Z,5.57
2018-10-12T12:46:22.555Z,4.60
2018-10-12T12:48:51.061Z,4.73
2018-10-12T12:51:18.748Z,4.50
2018-10-12T12:53:46.871Z,4.53
2018-10-12T12:56:14.918Z,4.93
2018-10-12T12:58:43.372Z,4.87
2018-10-12T13:01:11.460Z,5.10
2018-10-12T13:03:39.619Z,4.93
2018-10-12T13:06:07.715Z,5.93
2018-10-12T13:08:35.801Z,4.83
2018-10-12T13:11:03.895Z,5.20
2018-10-12T13:13:32.243Z,5.40
2018-10-12T13:16:00.339Z,4.50
2018-10-12T13:18:28.707Z,5.03
2018-10-12T13:20:56.799Z,4.80
2018-10-12T13:23:24.887Z,4.80
2018-10-12T13:25:53.266Z,5.20
2018-10-12T13:28:21.372Z,4.33
2018-10-12T13:30:49.501Z,4.73
2018-10-12T13:33:17.570Z,4.57
2018-10-12T13:35:45.683Z,4.70
2018-10-12T13:38:13.768Z,4.50
2018-10-12T13:40:42.108Z,5.23
2018-10-12T13:43:10.204Z,4.50
2018-10-12T13:45:38.312Z,4.70
2018-10-12T13:48:06.460Z,3.63
2018-10-12T13:50:34.659Z,4.50
2018-10-12T13:53:03.024Z,3.93
2018-10-12T13:55:31.121Z,3.60
2018-10-12T13:57:59.235Z,4.60
2018-10-12T14:00:27.466Z,4.27
2018-10-12T14:02:55.524Z,3.40
2018-10-12T14:05:23.700Z,4.37
2018-10-12T14:07:52.000Z,3.90
2018-10-12T14:10:20.094Z,3.93
2018-10-12T14:12:48.398Z,3.83
2018-10-12T14:15:16.680Z,3.80
2018-10-12T14:17:44.762Z,3.50
2018-10-12T14:20:12.848Z,3.13
2018-10-12T14:22:40.966Z,3.60
2018-10-12T14:25:09.466Z,3.93
2018-10-12T14:27:37.547Z,3.40
2018-10-12T14:30:05.748Z,3.30
2018-10-12T14:32:33.823Z,3.20
2018-10-12T14:35:01.916Z,3.10
2018-10-12T14:37:30.004Z,4.43
2018-10-12T14:39:58.104Z,3.73
2018-10-12T14:42:26.192Z,4.20
2018-10-12T14:44:54.321Z,3.27
2018-10-12T14:47:22.519Z,2.93
2018-10-12T14:49:50.608Z,2.70
2018-10-12T14:52:18.700Z,2.50
2018-10-12T14:54:46.783Z,2.37
2018-10-12T14:57:20.765Z,2.37
2018-10-12T14:59:50.031Z,2.47
2018-10-12T15:02:18.823Z,1.97
2018-10-12T15:04:46.903Z,2.70
2018-10-12T15:07:15.024Z,2.23
2018-10-12T15:09:43.099Z,2.30
2018-10-12T15:12:11.197Z,2.60
2018-10-12T15:14:50.883Z,2.60
2018-10-12T15:17:18.982Z,2.47
2018-10-12T15:19:47.055Z,2.13
2018-10-12T15:22:15.150Z,2.43
2018-10-12T15:24:43.676Z,2.57
2018-10-12T15:27:11.805Z,2.30
2018-10-12T15:29:39.901Z,2.73
2018-10-12T15:32:08.079Z,3.27
2018-10-12T15:34:36.092Z,2.40
2018-10-12T15:37:04.192Z,2.80
2018-10-12T15:39:32.307Z,3.00
2018-10-12T15:42:00.539Z,3.10
2018-10-12T15:44:28.721Z,2.50
2018-10-12T15:46:56.827Z,2.70
2018-10-12T15:49:24.937Z,2.57
2018-10-12T15:51:53.023Z,2.60
2018-10-12T15:54:21.683Z,2.70
2018-10-12T15:56:49.895Z,3.00
2018-10-12T15:59:18.292Z,2.60
2018-10-12T16:01:46.370Z,2.97
2018-10-12T16:04:14.460Z,2.97
2018-10-12T16:06:42.760Z,2.87
2018-10-12T16:09:10.835Z,2.90
2018-10-12T16:11:38.923Z,3.03
2018-10-12T16:14:07.391Z,2.80
2018-10-12T16:16:35.500Z,2.87
2018-10-12T16:19:03.587Z,2.80
2018-10-12T16:21:31.683Z,3.07
2018-10-12T16:24:12.160Z,3.10
2018-10-12T16:26:40.271Z,3.17
2018-10-12T16:29:08.430Z,3.07
2018-10-12T16:31:36.471Z,2.80
2018-10-12T16:34:04.555Z,3.33
2018-10-12T16:36:32.683Z,3.40
2018-10-12T16:39:00.735Z,3.07
2018-10-12T16:41:28.822Z,2.97
2018-10-12T16:43:56.908Z,3.43
2018-10-12T16:46:25.263Z,3.90
2018-10-12T16:48:53.381Z,3.83
2018-10-12T16:51:21.461Z,3.60
2018-10-12T16:53:49.539Z,3.00
2018-10-12T16:56:17.616Z,3.63
2018-10-12T16:58:45.700Z,3.37
2018-10-12T17:01:13.783Z,3.00
2018-10-12T17:03:41.873Z,4.47
2018-10-12T17:06:10.338Z,4.83
2018-10-12T17:08:38.419Z,3.93
2018-10-12T17:11:06.739Z,4.53
2018-10-12T17:13:34.860Z,4.00
2018-10-12T17:16:02.939Z,3.97
2018-10-12T17:18:31.128Z,3.73
2018-10-12T17:20:59.153Z,4.50
2018-10-12T17:23:27.247Z,4.07
2018-10-12T17:25:55.331Z,3.87
2018-10-12T17:28:23.417Z,4.20
2018-10-12T17:30:51.518Z,3.60
2018-10-12T17:33:19.611Z,4.20
2018-10-12T17:35:47.701Z,3.93
2018-10-12T17:38:16.643Z,4.33
2018-10-12T17:40:44.727Z,4.30
2018-10-12T17:43:12.853Z,46.30
2018-10-12T17:45:40.976Z,67.10
2018-10-12T17:48:09.273Z,35.63
2018-10-12T17:50:37.370Z,22.00
2018-10-12T17:53:05.920Z,26.90
2018-10-12T17:55:34.011Z,24.00
2018-10-12T17:58:02.107Z,17.27
2018-10-12T18:00:30.346Z,18.10
2018-10-12T18:02:58.619Z,17.37
2018-10-12T18:05:26.707Z,16.07
2018-10-12T18:07:54.803Z,16.57
2018-10-12T18:10:22.901Z,16.23
2018-10-12T18:12:50.992Z,14.30
2018-10-12T18:15:19.092Z,15.27
2018-10-12T18:17:47.183Z,13.63
2018-10-12T18:20:15.270Z,13.20
2018-10-12T18:22:43.696Z,13.90
2018-10-12T18:25:11.795Z,12.23
2018-10-12T18:27:39.887Z,11.87
2018-10-12T18:30:07.968Z,11.37
2018-10-12T18:32:36.063Z,10.23
2018-10-12T18:35:04.153Z,11.00
2018-10-12T18:37:32.254Z,10.93
2018-10-12T18:40:00.655Z,9.90
2018-10-12T18:42:28.740Z,9.23
2018-10-12T18:44:56.831Z,8.77
2018-10-12T18:47:25.013Z,8.17
2018-10-12T18:49:53.103Z,8.87
2018-10-12T18:52:21.182Z,8.00
2018-10-12T18:54:49.276Z,7.67
2018-10-12T18:57:17.363Z,8.10
2018-10-12T18:59:45.569Z,8.10
2018-10-12T19:02:13.544Z,7.10
2018-10-12T19:04:41.710Z,6.77
2018-10-12T19:07:09.728Z,7.37
2018-10-12T19:09:37.816Z,6.27
2018-10-12T19:12:05.904Z,6.63
2018-10-12T19:14:34.007Z,6.30
2018-10-12T19:17:02.098Z,6.00
2018-10-12T19:19:30.500Z,6.63
2018-10-12T19:21:58.499Z,5.93
2018-10-12T19:24:26.602Z,6.43
2018-10-12T19:26:54.741Z,6.33
2018-10-12T19:29:23.118Z,5.80
2018-10-12T19:31:51.316Z,5.80
2018-10-12T19:34:19.570Z,5.87
2018-10-12T19:36:47.647Z,5.37
2018-10-12T19:39:16.023Z,5.67
2018-10-12T19:41:44.111Z,6.20
2018-10-12T19:44:12.204Z,5.70
2018-10-12T19:46:40.835Z,4.93
2018-10-12T19:49:08.928Z,5.77
2018-10-12T19:51:37.003Z,5.47
2018-10-12T19:54:05.117Z,5.40
2018-10-12T19:56:33.319Z,5.27
2018-10-12T19:59:01.433Z,4.87
2018-10-12T20:01:29.494Z,5.23
2018-10-12T20:03:57.586Z,4.83
2018-10-12T20:06:25.667Z,5.10
2018-10-12T20:08:53.765Z,5.37
2018-10-12T20:11:21.846Z,5.30
2018-10-12T20:13:49.952Z,5.73
2018-10-12T20:16:18.033Z,5.87
2018-10-12T20:18:46.378Z,5.17
2018-10-12T20:21:14.472Z,5.70
2018-10-12T20:23:42.569Z,5.40
2018-10-12T20:26:10.660Z,5.50
2018-10-12T20:28:38.748Z,5.27
2018-10-12T20:31:06.940Z,5.80
2018-10-12T20:33:35.035Z,5.90
2018-10-12T20:36:03.328Z,5.70
2018-10-12T20:38:31.423Z,5.47
2018-10-12T20:40:59.503Z,5.47
2018-10-12T20:43:27.594Z,5.20
2018-10-12T20:45:55.680Z,5.33
2018-10-12T20:48:24.076Z,5.50
2018-10-12T20:50:52.155Z,4.73
2018-10-12T20:53:20.239Z,5.23
2018-10-12T20:55:48.341Z,5.30
2018-10-12T20:58:17.298Z,5.00
2018-10-12T21:00:45.879Z,4.97
2018-10-12T21:03:13.959Z,5.20
2018-10-12T21:05:42.340Z,5.13
2018-10-12T21:08:10.416Z,4.90
2018-10-12T21:10:38.511Z,4.87
2018-10-12T21:13:06.879Z,4.67
2018-10-12T21:15:34.966Z,4.40
2018-10-12T21:18:03.077Z,5.27
2018-10-12T21:20:31.157Z,5.03
2018-10-12T21:22:59.271Z,5.00
2018-10-12T21:25:27.359Z,4.43
2018-10-12T21:27:55.460Z,4.80
2018-10-12T21:30:23.552Z,4.70
2018-10-12T21:32:51.635Z,4.70
2018-10-12T21:35:19.719Z,4.60
2018-10-12T21:37:47.791Z,4.93
2018-10-12T21:40:15.939Z,5.10
2018-10-12T21:42:43.979Z,4.97
2018-10-12T21:45:12.063Z,5.00
2018-10-12T21:47:40.143Z,5.30
2018-10-12T21:50:08.244Z,5.03
2018-10-12T21:52:36.339Z,5.17
2018-10-12T21:55:04.687Z,5.53
2018-10-12T21:57:32.772Z,5.27
2018-10-12T22:00:00.902Z,5.87
2018-10-12T22:02:28.984Z,5.90
2018-10-12T22:04:57.091Z,5.73
2018-10-12T22:07:25.232Z,5.83
2018-10-12T22:09:53.335Z,5.40
2018-10-12T22:12:21.424Z,5.50
2018-10-12T22:14:49.515Z,6.70
2018-10-12T22:17:17.600Z,5.20
2018-10-12T22:19:45.691Z,5.77
2018-10-12T22:22:13.771Z,5.60
2018-10-12T22:24:41.863Z,5.53
2018-10-12T22:27:09.943Z,5.70
2018-10-12T22:29:38.028Z,5.30
2018-10-12T22:32:06.112Z,6.13
2018-10-12T22:34:34.211Z,5.13
2018-10-12T22:37:02.360Z,5.60
2018-10-12T22:39:30.435Z,5.60
2018-10-12T22:41:58.542Z,5.43
2018-10-12T22:44:26.619Z,5.30
2018-10-12T22:46:54.699Z,5.17
2018-10-12T22:49:22.799Z,5.00
2018-10-12T22:51:50.876Z,5.47
2018-10-12T22:54:19.201Z,5.17
2018-10-12T22:56:47.292Z,5.37
2018-10-12T22:59:15.369Z,5.37
2018-10-12T23:01:43.451Z,5.33
2018-10-12T23:04:11.531Z,4.90
2018-10-12T23:06:39.616Z,5.00
2018-10-12T23:09:09.255Z,4.43
2018-10-12T23:11:37.363Z,4.53
2018-10-12T23:14:06.105Z,4.23
2018-10-12T23:16:34.182Z,4.80
2018-10-12T23:19:02.259Z,4.50
2018-10-12T23:21:30.339Z,4.53
2018-10-12T23:23:58.652Z,3.90
2018-10-12T23:26:26.763Z,4.93
2018-10-12T23:28:54.843Z,4.60
2018-10-12T23:31:23.190Z,4.43
2018-10-12T23:34:01.079Z,4.80
2018-10-12T23:36:29.382Z,4.40
2018-10-12T23:38:57.643Z,4.23
2018-10-12T23:41:26.110Z,4.00
2018-10-12T23:43:54.219Z,4.30
2018-10-12T23:46:22.299Z,4.77
2018-10-12T23:48:50.676Z,4.57
2018-10-12T23:51:18.939Z,4.33
2018-10-12T23:53:47.151Z,4.87
2018-10-12T23:56:15.232Z,3.90
2018-10-12T23:58:43.321Z,4.23
